Time;durP1;ratioP1;P1;durP2;ratioP2;P2;SDS_P1;SDS_P2;PMS_P1;PMS_P2;Temp;Humidity;BMP_temperature;BMP_pressure;BME280_temperature;BME280_humidity;BME280_pressure;Samples;Min_cycle;Max_cycle;Signal;HPM_P1;HPM_P2
2022/04/21 00:00:41;;;;;;;14.55;7.57;;;5.40;99.90;;;;;;5056018;28;20130;-78
2022/04/21 00:03:07;;;;;;;16.45;7.90;;;5.40;99.90;;;;;;5055671;28;20044;-78
2022/04/21 00:05:33;;;;;;;16.80;8.82;;;5.30;99.90;;;;;;5055178;28;20052;-78
2022/04/21 00:07:59;;;;;;;16.98;7.93;;;5.30;99.90;;;;;;5055723;28;20135;-78
2022/04/21 00:10:26;;;;;;;17.33;9.13;;;5.40;99.90;;;;;;5056063;28;20135;-79
2022/04/21 00:12:52;;;;;;;15.00;7.82;;;5.40;99.90;;;;;;5055845;28;20483;-80
2022/04/21 00:15:18;;;;;;;17.40;8.05;;;5.40;99.90;;;;;;5055835;28;20045;-78
2022/04/21 00:17:44;;;;;;;15.27;8.10;;;5.30;99.90;;;;;;5055837;28;20048;-78
2022/04/21 00:20:11;;;;;;;13.00;7.38;;;5.30;99.90;;;;;;5055139;28;20577;-78
2022/04/21 00:25:21;;;;;;;16.58;9.45;;;5.00;99.90;;;;;;5055675;28;20167;-76
2022/04/21 00:27:47;;;;;;;16.70;8.85;;;5.10;99.90;;;;;;5054487;28;20037;-77
2022/04/21 00:30:15;;;;;;;19.98;9.75;;;4.80;99.90;;;;;;5037776;28;20067;-77
2022/04/21 00:32:42;;;;;;;18.88;10.18;;;4.80;99.90;;;;;;5056289;28;20037;-78
2022/04/21 00:35:11;;;;;;;15.98;9.60;;;4.90;99.90;;;;;;5055192;28;20037;-77
2022/04/21 00:37:51;;;;;;;15.30;9.25;;;4.90;99.90;;;;;;5054959;28;20033;-78
2022/04/21 00:40:19;;;;;;;21.23;10.00;;;4.80;99.90;;;;;;5055037;28;20041;-78
2022/04/21 00:42:45;;;;;;;19.55;11.15;;;4.80;99.90;;;;;;5055165;28;20052;-78
2022/04/21 00:45:13;;;;;;;20.73;11.40;;;5.10;99.90;;;;;;5054877;28;20059;-78
2022/04/21 00:47:42;;;;;;;19.95;10.30;;;5.00;99.90;;;;;;5055438;28;20047;-79
2022/04/21 00:50:24;;;;;;;17.50;10.35;;;4.80;99.90;;;;;;5053873;28;20044;-78
2022/04/21 00:52:51;;;;;;;17.33;11.35;;;4.80;99.90;;;;;;5054285;28;20075;-79
2022/04/21 00:55:18;;;;;;;17.10;10.80;;;4.80;99.90;;;;;;5052499;28;20049;-78
2022/04/21 00:57:45;;;;;;;21.70;13.02;;;4.90;99.90;;;;;;5053798;28;20106;-78
2022/04/21 01:00:11;;;;;;;21.48;11.82;;;4.80;99.90;;;;;;5054707;28;20041;-78
2022/04/21 01:02:49;;;;;;;19.35;12.02;;;4.90;99.90;;;;;;5055746;28;20045;-78
2022/04/21 01:05:31;;;;;;;18.65;10.70;;;4.90;99.90;;;;;;5054715;28;20040;-79
2022/04/21 01:08:02;;;;;;;23.25;12.98;;;4.70;99.90;;;;;;5054429;28;20057;-78
2022/04/21 01:10:30;;;;;;;28.33;13.38;;;4.70;99.90;;;;;;5054705;28;20570;-79
2022/04/21 01:12:56;;;;;;;29.13;14.65;;;4.50;99.90;;;;;;5053278;28;20052;-78
2022/04/21 01:15:22;;;;;;;30.42;13.93;;;4.60;99.90;;;;;;5053137;28;20438;-78
2022/04/21 01:17:48;;;;;;;25.70;13.57;;;4.60;99.90;;;;;;5054117;28;20045;-79
2022/04/21 01:20:18;;;;;;;26.17;13.82;;;4.60;99.90;;;;;;5054595;28;20083;-79
2022/04/21 01:22:44;;;;;;;33.55;16.13;;;4.70;99.90;;;;;;5054595;28;20573;-79
2022/04/21 01:25:10;;;;;;;32.05;16.00;;;4.80;99.90;;;;;;5053810;28;20080;-79
2022/04/21 01:27:37;;;;;;;32.35;17.05;;;4.80;99.90;;;;;;5053984;28;20045;-78
2022/04/21 01:30:05;;;;;;;31.10;17.30;;;4.80;99.90;;;;;;5054569;28;20095;-79
2022/04/21 01:32:35;;;;;;;33.20;16.98;;;4.70;99.90;;;;;;5054333;28;20044;-79
2022/04/21 01:35:02;;;;;;;32.13;16.52;;;4.80;99.90;;;;;;5054916;28;20519;-79
2022/04/21 01:42:56;;;;;;;29.20;16.05;;;4.60;99.90;;;;;;5053675;28;20092;-78
2022/04/21 01:45:21;;;;;;;35.00;17.85;;;4.60;99.90;;;;;;5053690;28;20056;-79
2022/04/21 01:47:47;;;;;;;33.35;17.10;;;4.60;99.90;;;;;;5053789;28;20095;-79
2022/04/21 01:50:13;;;;;;;37.60;17.00;;;4.60;99.90;;;;;;5052282;28;20083;-80
2022/04/21 01:52:39;;;;;;;33.40;18.75;;;4.60;99.90;;;;;;5054020;28;20482;-79
2022/04/21 01:55:06;;;;;;;33.33;17.85;;;4.50;99.90;;;;;;5053709;28;20521;-79
2022/04/21 01:57:32;;;;;;;36.25;18.92;;;4.60;99.90;;;;;;5053531;28;20095;-79
2022/04/21 01:59:57;;;;;;;36.60;18.83;;;4.50;99.90;;;;;;5053750;28;20411;-79
2022/04/21 02:02:23;;;;;;;33.47;18.55;;;4.50;99.90;;;;;;5054037;28;20041;-79
2022/04/21 02:04:48;;;;;;;34.90;18.40;;;4.30;99.90;;;;;;5054057;28;20490;-78
2022/04/21 02:07:15;;;;;;;40.00;18.63;;;4.30;99.90;;;;;;5053569;28;20061;-79
2022/04/21 02:09:40;;;;;;;34.85;17.75;;;4.30;99.90;;;;;;5053439;28;20045;-79
2022/04/21 02:12:06;;;;;;;33.55;18.85;;;4.20;99.90;;;;;;5053657;28;20501;-79
2022/04/21 02:14:33;;;;;;;37.50;18.95;;;4.30;99.90;;;;;;5053019;28;20048;-78
2022/04/21 02:16:59;;;;;;;34.78;19.65;;;4.30;99.90;;;;;;5052791;28;20045;-79
2022/04/21 02:19:25;;;;;;;29.42;17.25;;;4.10;99.90;;;;;;5053030;28;20041;-79
2022/04/21 02:21:50;;;;;;;38.33;19.45;;;3.90;99.90;;;;;;5054039;28;20045;-78
2022/04/21 02:24:16;;;;;;;34.47;17.98;;;3.80;99.90;;;;;;5053941;28;20051;-79
2022/04/21 02:26:41;;;;;;;33.90;18.40;;;3.80;99.90;;;;;;5054122;28;20175;-78
2022/04/21 02:29:07;;;;;;;29.02;18.20;;;3.70;99.90;;;;;;5052612;28;20051;-78
2022/04/21 02:31:32;;;;;;;35.65;18.73;;;3.70;99.90;;;;;;5053838;28;20047;-79
2022/04/21 02:33:58;;;;;;;34.15;17.88;;;3.80;99.90;;;;;;5053803;28;20041;-79
2022/04/21 02:36:23;;;;;;;35.97;18.73;;;3.80;99.90;;;;;;5053987;28;20037;-78
2022/04/21 02:38:49;;;;;;;34.47;17.98;;;3.70;99.90;;;;;;5053358;28;20048;-79
2022/04/21 02:41:16;;;;;;;34.65;18.45;;;3.60;99.90;;;;;;5053279;28;20037;-79
2022/04/21 02:43:42;;;;;;;30.63;17.50;;;3.60;99.90;;;;;;5053893;28;20055;-79
2022/04/21 02:46:09;;;;;;;35.17;18.50;;;3.60;99.90;;;;;;5057128;28;20041;-79
2022/04/21 02:48:35;;;;;;;34.22;18.02;;;3.80;99.90;;;;;;5057100;28;20124;-79
2022/04/21 02:51:01;;;;;;;31.52;16.73;;;3.80;99.90;;;;;;5057208;28;20106;-79
2022/04/21 02:58:55;;;;;;;30.08;16.40;;;3.90;99.90;;;;;;5057034;28;20067;-79
2022/04/21 03:01:21;;;;;;;29.25;16.77;;;3.90;99.90;;;;;;5057660;28;20049;-79
2022/04/21 03:03:46;;;;;;;39.42;18.83;;;3.80;99.90;;;;;;5057473;28;20167;-79
2022/04/21 03:06:12;;;;;;;27.73;15.82;;;3.70;99.90;;;;;;5057514;28;20102;-78
2022/04/21 03:08:38;;;;;;;30.50;16.67;;;3.60;99.90;;;;;;5057122;28;20245;-79
2022/04/21 03:11:04;;;;;;;31.27;15.98;;;3.50;99.90;;;;;;5056713;28;20134;-79
2022/04/21 03:13:30;;;;;;;31.52;16.30;;;3.40;99.90;;;;;;5056709;28;20045;-79
2022/04/21 03:15:55;;;;;;;26.77;15.63;;;3.40;99.90;;;;;;5056517;28;20036;-79
2022/04/21 03:18:21;;;;;;;29.33;15.60;;;3.40;99.90;;;;;;5056750;28;20060;-79
2022/04/21 03:26:17;;;;;;;30.52;15.40;;;3.40;99.90;;;;;;5056519;28;20049;-80
2022/04/21 03:28:43;;;;;;;27.35;16.67;;;3.30;99.90;;;;;;5056842;28;20076;-79
2022/04/21 03:31:09;;;;;;;28.45;15.07;;;3.30;99.90;;;;;;5056575;28;20091;-79
2022/04/21 03:33:34;;;;;;;29.67;16.45;;;3.20;99.90;;;;;;5056541;28;20045;-79
2022/04/21 03:36:00;;;;;;;30.42;15.82;;;3.30;99.90;;;;;;5056200;28;20076;-79
2022/04/21 03:38:25;;;;;;;33.30;16.05;;;3.30;99.90;;;;;;5056514;28;20095;-80
2022/04/21 03:40:51;;;;;;;29.35;16.95;;;3.30;99.90;;;;;;5056453;28;20041;-79
2022/04/21 03:43:16;;;;;;;28.25;14.82;;;3.30;99.90;;;;;;5056592;28;20095;-79
2022/04/21 03:45:42;;;;;;;26.63;15.00;;;3.20;99.90;;;;;;5056372;28;20037;-79
2022/04/21 03:48:07;;;;;;;31.52;15.07;;;3.20;99.90;;;;;;5056688;28;20068;-79
2022/04/21 03:50:34;;;;;;;28.27;15.50;;;3.20;99.90;;;;;;5056763;28;20544;-80
2022/04/21 03:53:00;;;;;;;30.00;15.40;;;3.10;99.90;;;;;;5056115;28;20080;-80
2022/04/21 03:55:25;;;;;;;25.88;15.18;;;3.10;99.90;;;;;;5055348;28;20488;-79
2022/04/21 03:57:51;;;;;;;27.50;15.52;;;3.00;99.90;;;;;;5055990;28;20064;-79
2022/04/21 04:00:17;;;;;;;33.55;15.63;;;3.00;99.90;;;;;;5056081;28;20041;-79
2022/04/21 04:02:42;;;;;;;32.42;16.15;;;3.00;99.90;;;;;;5056362;28;20093;-79
2022/04/21 04:05:08;;;;;;;29.92;16.90;;;3.00;99.90;;;;;;5056250;28;20041;-79
2022/04/21 04:13:02;;;;;;;28.58;16.08;;;3.00;99.90;;;;;;5055678;28;20138;-79
2022/04/21 04:15:28;;;;;;;30.90;17.80;;;3.10;99.90;;;;;;5054122;28;20049;-79
2022/04/21 04:17:53;;;;;;;33.33;16.52;;;3.30;99.90;;;;;;5055014;28;20037;-79
2022/04/21 04:20:19;;;;;;;31.15;15.63;;;3.40;99.90;;;;;;5054700;28;20564;-79
2022/04/21 04:22:44;;;;;;;26.38;14.40;;;3.40;99.90;;;;;;5054352;28;20435;-80
2022/04/21 04:25:10;;;;;;;26.75;14.40;;;3.20;99.90;;;;;;5055298;28;20077;-79
2022/04/21 04:27:36;;;;;;;25.95;14.77;;;3.10;99.90;;;;;;5054494;28;20048;-80
2022/04/21 04:30:04;;;;;;;29.35;15.02;;;3.00;99.90;;;;;;5036174;28;20611;-79
2022/04/21 04:32:30;;;;;;;24.98;13.70;;;3.00;99.90;;;;;;5034981;28;20042;-80
2022/04/21 04:34:55;;;;;;;34.28;15.63;;;3.00;99.90;;;;;;5054301;28;20098;-80
2022/04/21 04:37:21;;;;;;;24.75;13.55;;;3.00;99.90;;;;;;5054982;28;20049;-79
2022/04/21 04:39:46;;;;;;;22.80;13.77;;;3.10;99.90;;;;;;5054944;28;20043;-79
2022/04/21 04:42:18;;;;;;;25.15;13.68;;;3.10;99.90;;;;;;5054889;28;20049;-80
2022/04/21 04:46:34;;;;;;;22.65;13.80;;;3.20;99.90;;;;;;5056399;28;20487;-79
2022/04/21 04:47:39;;;;;;;21.70;13.25;;;3.40;99.90;;;;;;5053615;28;20056;-80
2022/04/21 04:50:06;;;;;;;22.35;12.85;;;3.50;99.90;;;;;;5051899;28;20055;-80
2022/04/21 04:52:32;;;;;;;24.25;12.45;;;3.60;99.90;;;;;;5053435;28;20063;-80
2022/04/21 04:54:58;;;;;;;22.00;12.05;;;3.60;99.90;;;;;;5052580;28;20045;-80
2022/04/21 04:57:23;;;;;;;28.73;14.55;;;3.60;99.90;;;;;;5051640;28;20083;-80
2022/04/21 04:59:49;;;;;;;23.38;13.23;;;3.60;99.90;;;;;;5050727;28;20053;-80
2022/04/21 05:02:14;;;;;;;26.50;14.40;;;3.70;99.90;;;;;;5050617;28;20064;-81
2022/04/21 05:04:40;;;;;;;25.05;14.02;;;4.00;99.90;;;;;;5050374;28;20045;-81
2022/04/21 05:07:06;;;;;;;23.23;12.75;;;4.00;99.90;;;;;;5048891;28;20045;-80
2022/04/21 05:09:31;;;;;;;20.95;11.60;;;4.20;99.90;;;;;;5050596;28;20041;-81
2022/04/21 05:11:57;;;;;;;26.17;13.05;;;4.20;99.90;;;;;;5050122;28;20036;-81
2022/04/21 05:14:24;;;;;;;21.75;11.63;;;4.30;99.90;;;;;;5050391;28;20106;-81
2022/04/21 05:16:51;;;;;;;22.20;12.30;;;4.40;99.90;;;;;;5050355;28;20053;-81
2022/04/21 05:19:19;;;;;;;18.27;11.23;;;4.50;99.90;;;;;;5050491;28;20433;-81
2022/04/21 05:21:46;;;;;;;20.25;11.75;;;4.70;99.90;;;;;;5038477;28;20120;-80
2022/04/21 05:24:13;;;;;;;18.60;11.75;;;4.70;99.90;;;;;;5049417;28;20044;-81
2022/04/21 05:26:40;;;;;;;19.50;12.18;;;4.80;99.90;;;;;;5049386;28;20488;-81
2022/04/21 05:32:01;;;;;;;22.65;11.48;;;5.00;99.90;;;;;;5049551;28;20056;-80
2022/04/21 05:34:28;;;;;;;17.15;11.10;;;5.10;99.90;;;;;;5050606;28;20502;-80
2022/04/21 05:36:54;;;;;;;18.45;10.85;;;5.20;99.90;;;;;;5051735;28;20100;-80
2022/04/21 05:39:20;;;;;;;21.63;10.32;;;5.30;99.90;;;;;;5050686;28;20044;-80
2022/04/21 05:41:47;;;;;;;16.77;10.25;;;5.40;99.90;;;;;;5049890;28;20049;-80
2022/04/21 05:44:13;;;;;;;20.08;11.68;;;5.50;99.90;;;;;;5050563;28;20045;-80
2022/04/21 05:46:39;;;;;;;21.75;10.07;;;5.70;99.90;;;;;;5050375;28;20053;-80
2022/04/21 05:49:05;;;;;;;20.88;10.25;;;5.80;99.90;;;;;;5049894;28;20388;-80
2022/04/21 05:51:31;;;;;;;19.55;10.50;;;5.90;99.90;;;;;;5050242;28;20041;-81
2022/04/21 05:53:58;;;;;;;20.23;10.52;;;6.00;99.90;;;;;;5050074;28;20037;-80
2022/04/21 05:56:24;;;;;;;16.15;10.45;;;6.20;99.90;;;;;;5049886;28;20045;-80
2022/04/21 05:58:51;;;;;;;21.15;9.88;;;6.30;99.90;;;;;;5050045;28;20057;-80
2022/04/21 06:01:16;;;;;;;14.50;8.98;;;6.40;99.90;;;;;;5049602;28;20167;-80
2022/04/21 06:03:42;;;;;;;17.85;9.88;;;6.60;99.90;;;;;;5050045;28;20123;-80
2022/04/21 06:06:09;;;;;;;16.77;9.57;;;6.60;99.90;;;;;;5049948;28;20045;-80
2022/04/21 06:08:36;;;;;;;17.13;9.27;;;6.70;99.90;;;;;;5049822;28;20076;-81
2022/04/21 06:11:03;;;;;;;12.27;8.15;;;6.90;99.90;;;;;;5049873;28;20270;-80
2022/04/21 06:13:30;;;;;;;14.40;8.18;;;7.30;99.90;;;;;;5049697;28;20053;-80
2022/04/21 06:15:56;;;;;;;11.63;7.22;;;8.40;99.90;;;;;;5048631;28;20428;-80
2022/04/21 06:18:23;;;;;;;12.02;6.72;;;9.40;99.90;;;;;;5049785;28;20040;-80
2022/04/21 06:20:49;;;;;;;10.90;6.43;;;10.20;99.90;;;;;;5053727;28;20052;-79
2022/04/21 06:23:15;;;;;;;11.13;6.82;;;10.70;99.90;;;;;;5053957;28;20053;-79
2022/04/21 06:25:42;;;;;;;14.85;6.63;;;11.30;99.90;;;;;;5053231;28;20127;-81
2022/04/21 06:28:08;;;;;;;12.60;5.65;;;11.50;99.90;;;;;;5053372;28;20056;-79
2022/04/21 06:30:33;;;;;;;9.30;5.30;;;12.00;99.90;;;;;;5053608;28;20057;-79
2022/04/21 06:32:59;;;;;;;11.48;5.97;;;12.30;99.90;;;;;;5053322;28;20045;-79
2022/04/21 06:35:28;;;;;;;15.70;5.90;;;12.50;99.90;;;;;;5051880;28;20047;-79
2022/04/21 06:37:54;;;;;;;12.45;5.28;;;12.80;96.90;;;;;;5053633;28;20041;-79
2022/04/21 06:40:21;;;;;;;9.98;5.72;;;13.00;96.30;;;;;;5055243;28;20135;-81
2022/04/21 06:42:46;;;;;;;10.02;5.38;;;13.30;95.50;;;;;;5056192;28;20041;-78
2022/04/21 06:48:03;;;;;;;7.95;4.63;;;13.30;77.90;;;;;;5055349;28;20147;-78
2022/04/21 06:50:31;;;;;;;7.80;4.30;;;13.50;89.00;;;;;;5055588;28;20056;-79
2022/04/21 06:52:56;;;;;;;7.93;4.35;;;13.60;89.60;;;;;;5055553;28;20045;-78
2022/04/21 06:55:22;;;;;;;9.52;5.07;;;13.90;80.90;;;;;;5055613;28;20047;-80
2022/04/21 06:57:48;;;;;;;9.20;4.55;;;13.60;64.10;;;;;;5055145;28;20084;-79
2022/04/21 07:00:14;;;;;;;9.55;4.50;;;13.80;64.10;;;;;;5055661;28;20423;-80
2022/04/21 07:02:41;;;;;;;6.78;3.67;;;14.00;71.70;;;;;;5055554;28;20057;-80
2022/04/21 07:05:09;;;;;;;9.45;4.72;;;14.40;55.50;;;;;;5055619;28;20049;-79
2022/04/21 07:07:35;;;;;;;8.02;3.53;;;15.00;56.40;;;;;;5055794;28;20056;-79
2022/04/21 07:10:01;;;;;;;6.25;3.15;;;14.80;43.60;;;;;;5055392;28;20041;-79
2022/04/21 07:12:30;;;;;;;6.70;3.28;;;14.80;42.50;;;;;;5055353;28;20068;-80
2022/04/21 07:14:57;;;;;;;5.43;2.85;;;15.00;44.10;;;;;;5055281;28;20041;-80
2022/04/21 07:17:23;;;;;;;4.95;2.80;;;15.30;32.10;;;;;;5055081;28;20573;-79
2022/04/21 07:19:49;;;;;;;5.03;2.83;;;15.60;33.00;;;;;;5055402;28;20045;-79
2022/04/21 07:22:14;;;;;;;7.35;2.78;;;15.90;26.30;;;;;;5054866;28;20502;-80
2022/04/21 07:24:40;;;;;;;9.40;3.17;;;15.80;25.50;;;;;;5055300;28;20041;-80
2022/04/21 07:27:06;;;;;;;5.07;2.80;;;15.60;22.20;;;;;;5054873;28;20506;-80
2022/04/21 07:29:31;;;;;;;5.63;3.03;;;15.60;24.90;;;;;;5053520;28;20522;-80
2022/04/21 07:31:57;;;;;;;8.43;2.92;;;15.70;24.10;;;;;;5052665;28;20128;-79
2022/04/21 07:34:23;;;;;;;4.80;2.33;;;15.70;23.50;;;;;;5054954;28;20044;-80
2022/04/21 07:36:49;;;;;;;6.53;3.08;;;16.00;22.90;;;;;;5054595;28;20041;-80
2022/04/21 07:39:15;;;;;;;5.80;3.08;;;16.20;21.30;;;;;;5054736;28;20041;-80
2022/04/21 07:41:41;;;;;;;8.18;3.58;;;16.00;17.50;;;;;;5053435;28;20124;-79
2022/04/21 07:44:07;;;;;;;6.13;2.83;;;16.20;22.30;;;;;;5054853;28;20049;-80
2022/04/21 07:46:33;;;;;;;4.55;2.45;;;16.40;21.10;;;;;;5054608;28;20045;-79
2022/04/21 07:51:42;;;;;;;7.93;2.70;;;16.40;15.40;;;;;;5053746;28;20143;-79
2022/04/21 07:54:08;;;;;;;5.00;2.67;;;16.40;17.80;;;;;;5053414;28;20053;-79
2022/04/21 07:56:34;;;;;;;5.88;2.90;;;16.70;15.90;;;;;;5054426;28;20053;-80
2022/04/21 07:59:00;;;;;;;5.25;2.75;;;16.90;17.60;;;;;;5036354;28;20053;-79
2022/04/21 08:01:26;;;;;;;6.28;2.97;;;17.20;9.80;;;;;;5054607;28;20449;-79
2022/04/21 08:03:51;;;;;;;5.80;2.58;;;16.80;14.20;;;;;;5054654;28;20049;-79
2022/04/21 08:06:17;;;;;;;8.65;2.65;;;16.90;15.60;;;;;;5054160;28;20071;-79
2022/04/21 08:08:43;;;;;;;4.43;2.53;;;17.30;13.30;;;;;;5054370;28;20403;-80
2022/04/21 08:11:08;;;;;;;5.15;2.63;;;17.60;12.30;;;;;;5054350;28;20040;-79
2022/04/21 08:13:34;;;;;;;4.75;2.58;;;17.10;10.70;;;;;;5054127;28;20053;-79
2022/04/21 08:15:59;;;;;;;5.88;2.97;;;16.80;8.90;;;;;;5052890;28;20442;-79
2022/04/21 08:18:25;;;;;;;4.90;2.60;;;16.90;13.10;;;;;;5054047;28;20055;-79
2022/04/21 08:20:53;;;;;;;5.65;2.80;;;17.00;10.80;;;;;;5054453;28;20053;-79
2022/04/21 08:23:19;;;;;;;4.72;2.55;;;16.90;13.10;;;;;;5054537;28;20124;-79
2022/04/21 08:33:57;;;;;;;5.55;2.65;;;17.50;9.60;;;;;;5054268;28;20053;-79
2022/04/21 08:36:23;;;;;;;4.85;2.50;;;17.50;13.30;;;;;;5054050;28;20037;-79
2022/04/21 08:38:48;;;;;;;8.77;2.88;;;17.70;10.40;;;;;;5053658;28;20128;-79
2022/04/21 08:41:18;;;;;;;8.55;2.45;;;17.90;12.60;;;;;;5053246;28;20167;-79
2022/04/21 08:43:46;;;;;;;4.82;2.75;;;18.00;10.70;;;;;;5053365;28;20070;-79
2022/04/21 08:46:17;;;;;;;7.78;2.40;;;17.90;10.00;;;;;;5053582;28;20403;-79
2022/04/21 08:48:50;;;;;;;7.65;2.03;;;18.10;10.90;;;;;;5053435;28;20064;-79
2022/04/21 08:51:15;;;;;;;7.85;2.33;;;18.30;9.20;;;;;;5053486;28;20049;-79
2022/04/21 08:53:42;;;;;;;6.10;2.22;;;18.10;6.00;;;;;;5053377;28;20107;-79
2022/04/21 08:56:10;;;;;;;7.00;2.33;;;17.20;6.30;;;;;;5053614;28;20119;-79
2022/04/21 08:58:35;;;;;;;4.45;2.47;;;17.60;10.90;;;;;;5053005;28;20063;-79
2022/04/21 09:01:01;;;;;;;4.55;2.08;;;18.00;9.50;;;;;;5052102;28;20048;-79
2022/04/21 09:03:27;;;;;;;4.30;2.22;;;17.60;5.90;;;;;;5053257;28;20052;-79
2022/04/21 09:05:52;;;;;;;5.22;2.17;;;17.80;7.50;;;;;;5053108;28;20037;-79
2022/04/21 09:08:22;;;;;;;5.63;2.30;;;17.60;12.20;;;;;;5053111;28;20044;-79
2022/04/21 09:11:02;;;;;;;4.07;2.40;;;17.70;11.40;;;;;;5053026;28;20167;-79
2022/04/21 09:13:35;;;;;;;5.95;2.35;;;17.80;9.50;;;;;;5052986;28;20538;-79
2022/04/21 09:16:02;;;;;;;6.25;2.42;;;18.10;9.20;;;;;;5053132;28;20056;-79
2022/04/21 09:18:42;;;;;;;4.28;2.25;;;18.50;10.10;;;;;;5052954;28;20151;-79
2022/04/21 09:21:10;;;;;;;8.82;2.67;;;17.80;11.20;;;;;;5052795;28;20051;-79
2022/04/21 09:23:35;;;;;;;7.60;2.85;;;17.90;10.80;;;;;;5051856;28;20060;-79
2022/04/21 09:26:13;;;;;;;11.38;3.08;;;17.60;10.20;;;;;;5052825;28;20053;-80
2022/04/21 09:28:38;;;;;;;9.00;2.90;;;17.80;11.20;;;;;;5052967;28;20052;-79
2022/04/21 09:31:07;;;;;;;6.35;2.05;;;17.90;12.30;;;;;;5051713;28;20040;-80
2022/04/21 09:33:35;;;;;;;8.52;2.40;;;18.00;11.60;;;;;;5052574;28;20049;-79
2022/04/21 09:36:05;;;;;;;4.40;2.45;;;17.90;10.40;;;;;;5052917;28;20053;-79
2022/04/21 09:38:31;;;;;;;7.05;2.50;;;17.70;10.90;;;;;;5052975;28;20049;-79
2022/04/21 09:41:07;;;;;;;7.93;2.80;;;17.80;11.70;;;;;;5052673;28;20087;-79
2022/04/21 09:43:35;;;;;;;4.70;2.47;;;17.90;9.40;;;;;;5053016;28;20090;-79
2022/04/21 09:46:17;;;;;;;5.20;2.72;;;17.60;10.40;;;;;;5052526;28;20403;-79
2022/04/21 09:48:44;;;;;;;6.22;2.60;;;17.70;12.00;;;;;;5052810;28;20041;-79
2022/04/21 09:51:17;;;;;;;5.28;2.75;;;17.70;10.80;;;;;;5052565;28;20041;-79
2022/04/21 09:53:49;;;;;;;6.80;3.10;;;17.80;12.20;;;;;;5052007;28;20099;-79
2022/04/21 09:56:15;;;;;;;8.07;2.55;;;17.60;15.60;;;;;;5056914;28;20037;-79
2022/04/21 09:58:42;;;;;;;4.60;2.40;;;17.60;16.40;;;;;;5056941;28;20111;-80
2022/04/21 10:01:08;;;;;;;4.55;2.38;;;17.70;15.50;;;;;;5056683;28;20132;-80
2022/04/21 10:03:34;;;;;;;7.10;3.33;;;17.60;11.60;;;;;;5056722;28;20067;-79
2022/04/21 10:06:01;;;;;;;4.40;2.53;;;17.60;12.30;;;;;;5056549;28;20041;-79
2022/04/21 10:08:29;;;;;;;6.38;3.20;;;17.40;12.00;;;;;;5055363;28;20507;-79
2022/04/21 10:10:55;;;;;;;6.35;2.58;;;17.40;17.00;;;;;;5056681;28;20084;-80
2022/04/21 10:13:21;;;;;;;5.60;2.47;;;17.30;14.30;;;;;;5056544;28;20116;-79
2022/04/21 10:15:47;;;;;;;4.97;2.13;;;17.20;14.50;;;;;;5056612;28;20444;-79
2022/04/21 10:18:15;;;;;;;4.57;2.75;;;17.00;11.50;;;;;;5056503;28;20041;-79
2022/04/21 10:20:42;;;;;;;6.85;2.78;;;17.20;14.70;;;;;;5055102;28;20045;-79
2022/04/21 10:23:18;;;;;;;10.52;2.70;;;17.10;13.30;;;;;;5056375;28;20053;-79
2022/04/21 10:25:44;;;;;;;4.32;2.15;;;17.10;11.50;;;;;;5054853;28;20045;-79
2022/04/21 10:28:41;;;;;;;5.93;2.70;;;17.20;11.30;;;;;;5056192;28;20101;-79
2022/04/21 10:31:32;;;;;;;6.20;2.40;;;17.00;13.00;;;;;;5055387;28;20120;-80
2022/04/21 10:34:07;;;;;;;5.07;2.40;;;17.30;10.70;;;;;;5052250;28;20037;-79
2022/04/21 10:36:35;;;;;;;5.97;2.20;;;17.50;12.60;;;;;;5052992;28;20045;-79
2022/04/21 10:39:24;;;;;;;5.90;2.47;;;17.70;8.90;;;;;;5053436;28;20427;-79
2022/04/21 10:42:25;;;;;;;4.47;2.38;;;17.50;13.30;;;;;;5052692;28;20049;-79
2022/04/21 10:44:52;;;;;;;6.07;2.85;;;17.70;11.60;;;;;;4990666;28;20398;-79
2022/04/21 10:47:36;;;;;;;6.18;2.97;;;17.80;12.30;;;;;;5036341;28;20049;-79
2022/04/21 10:50:18;;;;;;;6.45;2.92;;;17.90;10.60;;;;;;5042669;28;20500;-79
2022/04/21 10:58:32;;;;;;;5.50;2.63;;;18.00;9.60;;;;;;5051499;28;20057;-79
2022/04/21 11:01:14;;;;;;;5.95;2.35;;;18.10;11.60;;;;;;5053532;28;20120;-79
2022/04/21 11:03:42;;;;;;;6.18;2.30;;;18.30;7.80;;;;;;5052894;28;20092;-79
2022/04/21 11:06:09;;;;;;;6.20;2.88;;;18.10;6.70;;;;;;5052479;28;20041;-79
2022/04/21 11:08:36;;;;;;;4.45;1.90;;;18.00;5.20;;;;;;5052806;28;20053;-79
2022/04/21 11:11:02;;;;;;;4.32;2.13;;;18.20;8.10;;;;;;5052850;28;20053;-79
2022/04/21 11:13:49;;;;;;;5.45;2.65;;;18.40;5.70;;;;;;5052784;28;20411;-79
2022/04/21 11:16:40;;;;;;;4.85;2.40;;;18.00;7.40;;;;;;5051255;28;20056;-79
2022/04/21 11:19:33;;;;;;;4.93;2.63;;;18.50;7.30;;;;;;5052682;28;20061;-79
2022/04/21 11:22:01;;;;;;;12.40;3.13;;;19.00;6.60;;;;;;5052394;28;20055;-78
2022/04/21 11:24:27;;;;;;;4.15;2.55;;;18.50;4.90;;;;;;5052563;28;20570;-79
2022/04/21 11:26:58;;;;;;;9.02;2.42;;;18.70;6.60;;;;;;5052533;28;20041;-78
2022/04/21 11:29:25;;;;;;;4.72;2.35;;;18.50;6.40;;;;;;5052850;28;20037;-78
2022/04/21 11:32:01;;;;;;;4.28;2.30;;;18.00;7.10;;;;;;5052551;28;20053;-79
2022/04/21 11:34:26;;;;;;;;;;;18.40;7.70;;;;;;5052811;28;20444;-79
2022/04/21 11:37:01;;;;;;;3.53;2.30;;;18.40;9.10;;;;;;5050926;28;19964;-78
2022/04/21 11:39:27;;;;;;;7.80;2.40;;;18.70;4.90;;;;;;5052479;28;20061;-79
2022/04/21 11:41:53;;;;;;;12.98;2.80;;;19.00;6.70;;;;;;5051975;28;20141;-79
2022/04/21 11:44:22;;;;;;;6.32;2.70;;;19.00;6.80;;;;;;5052204;28;20049;-79
2022/04/21 11:46:48;;;;;;;6.47;2.80;;;19.20;3.40;;;;;;5034161;28;20554;-79
2022/04/21 11:49:14;;;;;;;8.18;2.78;;;19.30;5.40;;;;;;5052179;28;20106;-79
2022/04/21 11:51:41;;;;;;;5.70;2.28;;;19.40;5.80;;;;;;5051479;28;20426;-79
2022/04/21 11:54:08;;;;;;;8.07;3.08;;;19.10;4.20;;;;;;5052229;28;20448;-78
2022/04/21 11:56:36;;;;;;;6.43;2.80;;;19.20;5.00;;;;;;5048196;28;20033;-78
2022/04/21 11:59:09;;;;;;;5.03;3.20;;;19.50;5.30;;;;;;5030342;28;20468;-78
2022/04/21 12:07:09;;;;;;;8.80;2.42;;;18.50;5.60;;;;;;5030771;28;20068;-79
2022/04/21 12:09:40;;;;;;;5.68;2.30;;;18.50;7.00;;;;;;5031584;28;20487;-79
2022/04/21 12:12:08;;;;;;;6.13;2.80;;;18.70;4.80;;;;;;5031850;28;20045;-79
2022/04/21 12:14:34;;;;;;;5.60;2.83;;;18.20;4.40;;;;;;5032371;28;20052;-79
2022/04/21 12:17:01;;;;;;;6.32;2.67;;;18.20;5.30;;;;;;5031459;28;20052;-79
2022/04/21 12:19:32;;;;;;;8.73;3.40;;;18.30;6.00;;;;;;5031967;28;20041;-79
2022/04/21 12:22:05;;;;;;;6.95;3.20;;;18.30;7.60;;;;;;5030187;28;20084;-79
2022/04/21 12:24:41;;;;;;;12.07;3.22;;;18.30;6.20;;;;;;5032751;28;20045;-80
2022/04/21 12:27:23;;;;;;;6.22;2.65;;;18.60;7.60;;;;;;5034819;28;20045;-80
2022/04/21 12:29:53;;;;;;;4.95;2.88;;;18.60;6.00;;;;;;5033865;28;20049;-80
2022/04/21 12:32:23;;;;;;;10.32;3.15;;;18.90;7.90;;;;;;5034091;28;20314;-80
2022/04/21 12:34:49;;;;;;;7.55;3.45;;;19.60;6.10;;;;;;5033708;28;20488;-81
2022/04/21 12:37:23;;;;;;;5.60;2.60;;;19.40;5.30;;;;;;5032404;28;20457;-81
2022/04/21 12:39:49;;;;;;;6.57;2.80;;;19.90;1.70;;;;;;5032670;28;20037;-81
2022/04/21 12:42:15;;;;;;;5.18;3.08;;;20.40;1.90;;;;;;5032731;28;20443;-81
2022/04/21 12:44:42;;;;;;;6.05;3.08;;;20.40;1.80;;;;;;5033535;28;20041;-81
2022/04/21 12:47:19;;;;;;;5.10;2.63;;;20.60;3.00;;;;;;5034065;28;20053;-80
2022/04/21 12:49:52;;;;;;;4.43;2.83;;;20.80;1.00;;;;;;5033801;28;20049;-81
2022/04/21 12:52:36;;;;;;;7.95;3.60;;;20.60;1.00;;;;;;5033378;28;20466;-81
2022/04/21 12:55:26;;;;;;;8.02;3.63;;;20.30;2.00;;;;;;5033341;28;20480;-81
2022/04/21 12:57:58;;;;;;;4.75;2.83;;;19.40;2.60;;;;;;5026121;28;20053;-81
2022/04/21 13:00:23;;;;;;;5.85;3.40;;;19.30;7.30;;;;;;5033865;28;20080;-81
2022/04/21 13:02:49;;;;;;;6.03;3.50;;;19.90;6.30;;;;;;5034060;28;20068;-81
2022/04/21 13:05:14;;;;;;;7.13;3.40;;;20.20;5.50;;;;;;5033500;28;20045;-81
2022/04/21 13:07:40;;;;;;;5.97;2.38;;;19.80;2.70;;;;;;5033865;28;20048;-81
2022/04/21 13:10:06;;;;;;;6.53;2.35;;;20.10;1.20;;;;;;5032120;28;20411;-81
2022/04/21 13:12:33;;;;;;;5.43;3.10;;;21.00;2.20;;;;;;5033320;28;20045;-81
2022/04/21 13:14:58;;;;;;;6.93;3.08;;;21.10;1.00;;;;;;5033607;28;20049;-80
2022/04/21 13:17:24;;;;;;;4.53;2.47;;;21.00;1.00;;;;;;5033748;28;20538;-80
2022/04/21 13:19:50;;;;;;;5.70;3.00;;;21.40;1.00;;;;;;5033463;28;20041;-80
2022/04/21 13:22:15;;;;;;;6.30;3.10;;;20.60;1.00;;;;;;5033052;28;20087;-80
2022/04/21 13:24:41;;;;;;;6.65;3.00;;;19.70;1.00;;;;;;5033168;28;20053;-79
2022/04/21 13:27:06;;;;;;;4.47;3.20;;;19.50;1.00;;;;;;5033381;28;20045;-80
2022/04/21 13:29:33;;;;;;;9.82;3.30;;;19.70;1.90;;;;;;5033569;28;20107;-80
2022/04/21 13:34:44;;;;;;;7.10;3.70;;;19.40;3.90;;;;;;5033252;28;20060;-80
2022/04/21 13:37:10;;;;;;;6.55;3.83;;;19.30;5.40;;;;;;5033068;28;20041;-80
2022/04/21 13:39:36;;;;;;;5.05;3.22;;;19.20;3.40;;;;;;5035779;28;20093;-80
2022/04/21 13:42:03;;;;;;;8.60;3.78;;;19.80;3.40;;;;;;5033616;28;20045;-81
2022/04/21 13:44:29;;;;;;;6.68;3.70;;;20.70;3.70;;;;;;5032985;28;20128;-81